Gainesville, Georgia
Current Conditions -  °F | °C
As of 5:53 AM on Friday 31 Oct 2014 (Local Time) from KGVL Reporting Station
Clear Clear  
Wind Chill: 44°   Ceiling: Unl
Heat Index: 44°   Visibility: 10mi
Dew Point: 39°   Wind: 3mph
Humidity: 82%   Direction: 350°N
Pressure: 29.93"   Gusts: NA
Location:  34.3°N, 83.82°W
Report Text: KGVL 310953Z AUTO 35003KT 10SM CLR 07/04 A2993 RMK AO2 SLP132 T00670039
Loading
Personal Weather Stations






























Interactive Weather Map
Tropical Storm Tracking
New forecast layout! Learn more

10-Day Weather Forecast

Advertisements
Track Severe Weather on mobile